Time;durP1;ratioP1;P1;durP2;ratioP2;P2;SDS_P1;SDS_P2;PMS_P1;PMS_P2;Temp;Humidity;BMP_temperature;BMP_pressure;BME280_temperature;BME280_humidity;BME280_pressure;Samples;Min_cycle;Max_cycle;Signal;HPM_P1;HPM_P2
2022/07/27 00:02:01;;;;;;;4.72;2.60;;;;;;;28.41;43.24;98343.97;6132018;23;20159;-94
2022/07/27 00:04:27;;;;;;;5.97;3.25;;;;;;;28.40;43.37;98342.34;6132760;23;20237;-93
2022/07/27 00:06:52;;;;;;;5.13;2.78;;;;;;;28.41;43.33;98340.44;6131916;23;20183;-94
2022/07/27 00:09:18;;;;;;;7.13;3.88;;;;;;;28.41;43.08;98359.31;6157715;23;20159;-94
2022/07/27 00:11:45;;;;;;;4.20;2.78;;;;;;;28.54;42.85;98349.31;6132386;23;20155;-93
2022/07/27 00:14:10;;;;;;;5.55;3.17;;;;;;;28.58;42.94;98352.41;6131872;23;20237;-93
2022/07/27 00:16:36;;;;;;;5.72;3.50;;;;;;;28.67;42.70;98359.25;6132115;23;20626;-94
2022/07/27 00:19:02;;;;;;;6.05;3.22;;;;;;;28.73;42.79;98357.56;6157538;23;20151;-93
2022/07/27 00:21:28;;;;;;;4.20;2.53;;;;;;;28.79;42.88;98364.81;6131887;23;20185;-93
2022/07/27 00:23:53;;;;;;;6.78;3.03;;;;;;;28.83;42.66;98364.16;6131977;23;20642;-94
2022/07/27 00:26:19;;;;;;;6.38;3.13;;;;;;;28.86;42.32;98365.59;6157361;23;20249;-94
2022/07/27 00:28:44;;;;;;;4.68;2.80;;;;;;;28.83;42.33;98363.31;6157323;23;20155;-93
2022/07/27 00:31:10;;;;;;;5.72;3.10;;;;;;;28.72;42.72;98372.91;6131785;23;20175;-93
2022/07/27 00:33:35;;;;;;;6.55;2.80;;;;;;;28.67;42.74;98374.63;6131851;23;20571;-94
2022/07/27 00:36:01;;;;;;;4.22;2.65;;;;;;;28.63;43.57;98374.22;6158151;23;20144;-93
2022/07/27 00:38:27;;;;;;;6.50;3.35;;;;;;;28.57;43.15;98377.72;6131747;23;20159;-94
2022/07/27 00:40:54;;;;;;;4.90;2.95;;;;;;;28.59;43.35;98376.47;6131817;23;20579;-93
2022/07/27 00:43:19;;;;;;;8.13;3.05;;;;;;;28.53;43.21;98377.34;6157256;23;20566;-93
2022/07/27 00:45:45;;;;;;;4.28;2.70;;;;;;;28.42;44.04;98372.59;6157160;23;20205;-93
2022/07/27 00:48:10;;;;;;;4.70;3.00;;;;;;;28.32;43.99;98366.00;6132762;23;20186;-94
2022/07/27 00:50:40;;;;;;;4.22;2.55;;;;;;;28.00;44.41;98368.53;6131457;23;20159;-93
2022/07/27 00:53:07;;;;;;;8.05;2.90;;;;;;;28.11;44.13;98369.78;6131555;23;20159;-93
2022/07/27 00:55:33;;;;;;;6.85;2.85;;;;;;;28.14;44.46;98369.38;6131602;23;20155;-94
2022/07/27 00:57:59;;;;;;;5.93;3.50;;;;;;;28.16;44.21;98369.97;6131538;23;20529;-93
2022/07/27 01:00:26;;;;;;;5.72;3.15;;;;;;;28.18;44.18;98370.59;6131856;23;20598;-93
2022/07/27 01:02:51;;;;;;;5.45;3.33;;;;;;;28.15;44.15;98376.41;6131415;23;20155;-93
2022/07/27 01:05:17;;;;;;;4.80;3.13;;;;;;;28.10;44.47;98367.28;6131436;23;20159;-93
2022/07/27 01:07:42;;;;;;;6.57;3.65;;;;;;;28.10;44.22;98368.13;6157073;23;20619;-93
2022/07/27 01:10:08;;;;;;;5.38;3.08;;;;;;;28.06;44.77;98377.69;6131375;23;20589;-93
2022/07/27 01:12:33;;;;;;;5.95;3.17;;;;;;;27.93;45.19;98372.28;6131405;23;20151;-93
2022/07/27 01:14:59;;;;;;;12.40;3.67;;;;;;;27.83;45.14;98369.97;6131467;23;20242;-93
2022/07/27 01:17:29;;;;;;;6.55;3.33;;;;;;;27.69;45.65;98364.81;6131280;23;20150;-94
2022/07/27 01:19:55;;;;;;;4.95;3.83;;;;;;;27.83;45.38;98375.38;6131413;23;20225;-93
2022/07/27 01:22:21;;;;;;;6.50;3.45;;;;;;;27.87;45.11;98378.50;6131595;23;20625;-93
2022/07/27 01:24:49;;;;;;;5.85;3.05;;;;;;;27.93;45.16;98377.66;6156821;23;20147;-93
2022/07/27 01:27:15;;;;;;;5.03;3.47;;;;;;;27.85;45.75;98377.88;6131225;23;20610;-93
2022/07/27 01:29:40;;;;;;;6.63;3.20;;;;;;;27.82;45.67;98380.97;6131169;23;20158;-93
2022/07/27 01:32:06;;;;;;;6.03;2.97;;;;;;;27.82;45.43;98380.97;6131145;23;20172;-93
2022/07/27 01:34:32;;;;;;;6.63;3.45;;;;;;;27.88;45.23;98374.78;6131269;23;20219;-93
2022/07/27 01:37:03;;;;;;;7.60;3.13;;;;;;;27.89;45.24;98379.09;6156743;23;20178;-94
2022/07/27 01:39:29;;;;;;;7.65;3.80;;;;;;;27.82;45.66;98372.91;6131219;23;20147;-94
2022/07/27 01:41:54;;;;;;;5.60;3.78;;;;;;;27.83;45.64;98374.56;6131157;23;20159;-94
2022/07/27 01:44:20;;;;;;;11.85;3.97;;;;;;;27.81;45.83;98373.91;6131225;23;20182;-93
2022/07/27 01:46:45;;;;;;;7.80;3.60;;;;;;;27.79;45.97;98365.22;6156665;23;20599;-93
2022/07/27 01:49:11;;;;;;;5.80;3.22;;;;;;;27.76;46.24;98373.72;6156616;23;20151;-93
2022/07/27 01:51:36;;;;;;;6.75;3.67;;;;;;;27.73;46.12;98372.28;6131077;23;20578;-92
2022/07/27 01:54:02;;;;;;;5.20;3.40;;;;;;;27.67;46.56;98377.69;6131092;23;20155;-93
2022/07/27 01:56:27;;;;;;;8.10;3.83;;;;;;;27.71;46.39;98370.81;6156564;23;20161;-93
2022/07/27 01:58:54;;;;;;;6.80;4.03;;;;;;;27.70;46.34;98377.28;6156694;23;20151;-94
2022/07/27 02:01:19;;;;;;;7.18;4.10;;;;;;;27.67;46.53;98372.28;6156539;23;20227;-93
2022/07/27 02:03:45;;;;;;;7.65;3.65;;;;;;;27.62;46.35;98380.16;6130766;23;20193;-94
2022/07/27 02:06:10;;;;;;;8.20;3.77;;;;;;;27.57;46.82;98385.34;6130845;23;20179;-93
2022/07/27 02:08:36;;;;;;;7.28;3.70;;;;;;;27.58;46.84;98378.91;6131015;23;20167;-93
2022/07/27 02:13:47;;;;;;;6.13;3.70;;;;;;;27.42;47.72;98380.97;6156922;23;20150;-93
2022/07/27 02:16:17;;;;;;;6.90;3.80;;;;;;;27.35;47.35;98380.13;6130959;23;20166;-93
2022/07/27 02:18:43;;;;;;;4.33;3.03;;;;;;;27.34;47.34;98386.53;6130837;23;20249;-94
2022/07/27 02:21:09;;;;;;;7.53;3.73;;;;;;;27.31;47.28;98380.72;6130739;23;20460;-93
2022/07/27 02:23:36;;;;;;;7.83;4.00;;;;;;;27.25;47.97;98385.03;6130478;23;20255;-93
2022/07/27 02:26:04;;;;;;;7.82;3.60;;;;;;;27.15;48.10;98387.31;6130708;23;20175;-93
2022/07/27 02:28:29;;;;;;;5.85;3.22;;;;;;;27.09;48.25;98380.06;6130840;23;20155;-94
2022/07/27 02:30:55;;;;;;;8.55;3.90;;;;;;;27.18;48.02;98380.69;6156507;23;20325;-93
2022/07/27 02:33:20;;;;;;;6.15;3.85;;;;;;;27.16;47.98;98380.91;6130901;23;20150;-93
2022/07/27 02:35:46;;;;;;;6.07;3.33;;;;;;;27.11;47.97;98388.75;6130878;23;20154;-93
2022/07/27 02:38:11;;;;;;;8.60;4.57;;;;;;;27.03;48.76;98382.72;6131068;23;20190;-93
2022/07/27 02:40:37;;;;;;;7.22;4.07;;;;;;;27.02;48.20;98378.41;6130683;23;20163;-94
2022/07/27 02:43:03;;;;;;;7.90;4.32;;;;;;;26.92;48.81;98388.69;6130714;23;20163;-93
2022/07/27 02:45:28;;;;;;;6.15;3.70;;;;;;;26.92;48.49;98386.84;6130663;23;20618;-93
2022/07/27 02:47:53;;;;;;;7.70;4.65;;;;;;;26.98;47.98;98388.72;6157016;23;20151;-93
2022/07/27 02:50:19;;;;;;;7.93;3.72;;;;;;;26.88;48.81;98390.13;6156202;23;20161;-93
2022/07/27 02:52:45;;;;;;;8.60;4.23;;;;;;;26.82;48.33;98384.53;6156329;23;20147;-93
2022/07/27 02:55:10;;;;;;;6.95;3.70;;;;;;;26.79;48.48;98384.09;6156169;23;20480;-94
2022/07/27 02:57:39;;;;;;;7.32;4.00;;;;;;;26.76;48.31;98389.84;6130501;23;20500;-93
2022/07/27 03:00:07;;;;;;;8.07;4.20;;;;;;;26.68;49.84;98382.78;6130970;23;20155;-93
2022/07/27 03:02:33;;;;;;;8.53;4.30;;;;;;;26.66;49.45;98387.53;6130467;23;20159;-93
2022/07/27 03:04:58;;;;;;;6.30;3.67;;;;;;;26.63;49.20;98393.31;6130629;23;20614;-93
2022/07/27 03:07:24;;;;;;;7.67;3.60;;;;;;;26.56;49.15;98395.16;6130451;23;20183;-92
2022/07/27 03:09:49;;;;;;;9.63;4.10;;;;;;;26.58;48.88;98392.25;6130447;23;20155;-93
2022/07/27 03:12:15;;;;;;;9.07;3.87;;;;;;;26.50;49.68;98395.09;6130515;23;20159;-93
2022/07/27 03:14:40;;;;;;;8.60;4.10;;;;;;;26.40;50.12;98389.28;6130659;23;20155;-93
2022/07/27 03:17:06;;;;;;;8.87;3.50;;;;;;;26.36;50.42;98394.25;6130427;23;20563;-93
2022/07/27 03:19:31;;;;;;;7.13;3.50;;;;;;;26.38;49.91;98396.72;6156144;23;20147;-94
2022/07/27 03:21:57;;;;;;;6.00;3.53;;;;;;;26.38;50.13;98399.41;6130396;23;20583;-93
2022/07/27 03:24:22;;;;;;;7.87;3.70;;;;;;;26.28;51.09;98398.94;6130536;23;20159;-93
2022/07/27 03:26:48;;;;;;;7.03;4.00;;;;;;;26.27;51.01;98403.47;6130374;23;20681;-93
2022/07/27 03:29:13;;;;;;;8.50;4.07;;;;;;;26.24;51.17;98393.94;6130634;23;20155;-93
2022/07/27 03:31:39;;;;;;;10.87;3.73;;;;;;;26.28;50.35;98398.94;6130402;23;20163;-93
2022/07/27 03:34:04;;;;;;;10.13;3.70;;;;;;;26.22;50.82;98396.00;6130890;23;20169;-94
2022/07/27 03:36:32;;;;;;;6.10;3.57;;;;;;;26.21;50.89;98397.03;6158017;23;20154;-93
2022/07/27 03:38:58;;;;;;;7.27;4.40;;;;;;;26.18;51.50;98389.34;6132196;23;20227;-93
2022/07/27 03:41:23;;;;;;;6.90;3.93;;;;;;;26.19;51.76;98392.88;6132444;23;20158;-93
2022/07/27 03:43:49;;;;;;;7.30;3.93;;;;;;;26.17;51.86;98401.16;6132302;23;20214;-93
2022/07/27 03:46:14;;;;;;;5.90;3.13;;;;;;;26.18;51.70;98396.59;6132255;23;20175;-94
2022/07/27 03:48:40;;;;;;;8.33;3.87;;;;;;;26.19;51.62;98400.94;6132543;23;20159;-93
2022/07/27 03:51:05;;;;;;;6.13;3.60;;;;;;;26.17;52.06;98401.16;6132280;23;20151;-94
2022/07/27 03:53:31;;;;;;;6.33;3.83;;;;;;;26.12;52.09;98405.41;6132439;23;20169;-93
2022/07/27 03:55:56;;;;;;;7.00;4.17;;;;;;;26.00;52.85;98415.88;6132213;23;20162;-93
2022/07/27 03:58:22;;;;;;;9.47;4.83;;;;;;;26.00;52.98;98413.19;6132209;23;20159;-93
2022/07/27 04:00:49;;;;;;;6.37;3.33;;;;;;;26.06;52.65;98409.72;6131953;23;20167;-94
2022/07/27 04:03:16;;;;;;;6.73;3.70;;;;;;;26.08;52.34;98410.34;6131987;23;20186;-93
2022/07/27 04:05:41;;;;;;;6.07;3.80;;;;;;;26.11;52.64;98417.19;6131923;23;20178;-94
2022/07/27 04:08:07;;;;;;;7.20;4.07;;;;;;;26.05;53.14;98418.78;6132221;23;20167;-93
2022/07/27 04:10:32;;;;;;;6.20;3.60;;;;;;;26.06;53.41;98425.84;6158338;23;20151;-93
2022/07/27 04:12:58;;;;;;;7.00;3.87;;;;;;;26.07;53.18;98427.47;6131958;23;20159;-93
2022/07/27 04:15:23;;;;;;;6.97;3.70;;;;;;;26.08;53.03;98426.47;6157601;23;20151;-93
2022/07/27 04:17:49;;;;;;;6.60;3.07;;;;;;;26.13;52.88;98429.41;6131774;23;20553;-94
2022/07/27 04:20:15;;;;;;;10.03;4.30;;;;;;;26.16;52.67;98425.50;6131900;23;20151;-94
2022/07/27 04:22:40;;;;;;;13.47;7.70;;;;;;;26.21;52.99;98434.63;6132111;23;20216;-94
2022/07/27 04:25:06;;;;;;;11.80;4.60;;;;;;;26.27;52.59;98433.03;6157734;23;20578;-94
2022/07/27 04:27:32;;;;;;;8.00;4.20;;;;;;;26.33;52.29;98434.94;6131907;23;20598;-94
2022/07/27 04:29:57;;;;;;;7.50;3.97;;;;;;;26.36;52.98;98433.72;6157501;23;20186;-93
2022/07/27 04:32:23;;;;;;;7.27;3.40;;;;;;;26.36;53.31;98431.03;6132904;23;20151;-94
2022/07/27 04:34:48;;;;;;;8.03;4.00;;;;;;;26.38;53.32;98439.72;6157626;23;20151;-93
2022/07/27 04:37:14;;;;;;;6.73;4.00;;;;;;;26.42;53.05;98435.59;6157501;23;20143;-93
2022/07/27 04:39:39;;;;;;;5.93;3.53;;;;;;;26.48;53.24;98435.63;6131938;23;20170;-94
2022/07/27 04:42:05;;;;;;;9.10;4.20;;;;;;;26.51;53.38;98442.47;6132219;23;20167;-94
2022/07/27 04:44:30;;;;;;;7.13;4.00;;;;;;;26.54;53.84;98442.91;6131486;23;20155;-93
2022/07/27 04:46:56;;;;;;;8.67;4.10;;;;;;;26.71;52.64;98446.09;6131495;23;20175;-93
2022/07/27 04:49:21;;;;;;;7.20;4.23;;;;;;;26.71;53.10;98448.78;6132081;23;20186;-94
2022/07/27 04:51:47;;;;;;;9.05;4.88;;;;;;;26.80;52.66;98453.84;6157612;23;20583;-94
2022/07/27 04:54:12;;;;;;;7.57;4.40;;;;;;;26.87;52.98;98448.47;6157401;23;20226;-93
2022/07/27 04:56:38;;;;;;;11.07;4.47;;;;;;;26.89;53.29;98449.09;6131728;23;20170;-94
2022/07/27 04:59:03;;;;;;;8.00;4.32;;;;;;;27.01;52.58;98460.13;6132558;23;20162;-94
2022/07/27 05:01:29;;;;;;;9.63;4.77;;;;;;;27.04;53.05;98462.41;6131690;23;20609;-94
2022/07/27 05:03:54;;;;;;;8.70;4.73;;;;;;;27.16;52.92;98466.16;6158004;23;20151;-94
2022/07/27 05:06:20;;;;;;;9.32;4.38;;;;;;;27.11;52.79;98465.94;6131547;23;20183;-95
2022/07/27 05:08:45;;;;;;;10.23;3.77;;;;;;;27.24;52.78;98474.06;6131588;23;20567;-94
2022/07/27 05:11:11;;;;;;;8.53;4.33;;;;;;;27.39;52.21;98462.13;6131663;23;20155;-95
2022/07/27 05:13:39;;;;;;;6.75;4.20;;;;;;;27.48;51.79;98470.03;6131669;23;20155;-95
2022/07/27 05:16:08;;;;;;;5.47;3.38;;;;;;;27.51;52.16;98472.31;6131633;23;20148;-96
2022/07/27 05:18:33;;;;;;;11.00;4.00;;;;;;;27.49;51.50;98471.69;6131889;23;20155;-94
2022/07/27 05:20:59;;;;;;;7.80;4.43;;;;;;;27.61;50.14;98473.56;6131425;23;20562;-93
2022/07/27 05:23:24;;;;;;;7.70;4.10;;;;;;;27.62;51.15;98477.91;6131380;23;20234;-94
2022/07/27 05:25:50;;;;;;;9.05;4.28;;;;;;;27.76;50.63;98470.69;6131183;23;20214;-93
2022/07/27 05:28:15;;;;;;;7.63;4.28;;;;;;;27.92;50.18;98475.66;6132379;23;20155;-94
2022/07/27 05:30:41;;;;;;;7.03;4.25;;;;;;;27.92;50.18;98479.19;6131463;23;20488;-94
2022/07/27 05:33:06;;;;;;;5.68;3.50;;;;;;;27.85;49.91;98472.16;6131412;23;20177;-93
2022/07/27 05:35:32;;;;;;;7.28;4.07;;;;;;;27.99;49.83;98473.78;6131234;23;20462;-94
2022/07/27 05:37:58;;;;;;;7.18;4.43;;;;;;;28.03;49.60;98475.94;6131304;23;20159;-94
2022/07/27 05:40:24;;;;;;;8.63;3.38;;;;;;;27.98;49.64;98474.84;6131310;23;20237;-94
2022/07/27 05:42:49;;;;;;;7.32;4.32;;;;;;;28.17;48.97;98479.41;6156863;23;20147;-93
2022/07/27 05:45:15;;;;;;;9.95;4.00;;;;;;;28.17;48.73;98476.72;6131081;23;20159;-94
2022/07/27 05:47:40;;;;;;;6.90;4.35;;;;;;;28.32;48.81;98482.75;6156977;23;20218;-95
2022/07/27 05:50:06;;;;;;;7.50;3.47;;;;;;;28.36;49.06;98480.44;6131626;23;20155;-94
2022/07/27 05:52:33;;;;;;;9.90;4.95;;;;;;;28.50;48.92;98482.91;6131191;23;20166;-94
2022/07/27 05:54:59;;;;;;;10.73;4.18;;;;;;;28.71;48.50;98491.81;6131167;23;20155;-95
2022/07/27 05:57:24;;;;;;;8.95;3.80;;;;;;;28.72;48.38;98490.78;6130867;23;20277;-95
2022/07/27 05:59:53;;;;;;;8.07;4.40;;;;;;;28.80;47.40;98487.88;6131110;23;20155;-94
2022/07/27 06:02:19;;;;;;;6.18;3.90;;;;;;;28.70;47.19;98491.00;6131335;23;20190;-94
2022/07/27 06:04:44;;;;;;;6.28;3.67;;;;;;;28.91;47.06;98496.13;6131655;23;20233;-95
2022/07/27 06:09:54;;;;;;;7.13;3.83;;;;;;;29.14;46.22;98495.63;6157063;23;20186;-92
2022/07/27 06:12:19;;;;;;;7.05;4.03;;;;;;;29.10;46.54;98499.78;6157202;23;20151;-94
2022/07/27 06:14:45;;;;;;;7.28;3.88;;;;;;;29.08;46.14;98496.47;6131104;23;20527;-94
2022/07/27 06:17:10;;;;;;;6.68;3.72;;;;;;;29.14;46.16;98495.63;6131157;23;20609;-94
2022/07/27 06:19:38;;;;;;;8.18;4.20;;;;;;;29.17;45.83;98500.56;6131162;23;20154;-95
2022/07/27 06:22:06;;;;;;;6.85;3.70;;;;;;;29.18;46.13;98499.53;6131234;23;20221;-95
2022/07/27 06:24:32;;;;;;;8.93;3.90;;;;;;;29.42;46.06;98506.94;6130858;23;20557;-95
2022/07/27 06:26:59;;;;;;;9.82;4.20;;;;;;;29.65;44.75;98504.53;6131068;23;20187;-94
2022/07/27 06:29:24;;;;;;;7.10;4.10;;;;;;;29.82;44.36;98502.16;6131007;23;20465;-96
2022/07/27 06:31:50;;;;;;;9.43;4.40;;;;;;;29.88;44.35;98503.13;6131828;23;20185;-95
2022/07/27 06:34:16;;;;;;;6.70;4.47;;;;;;;30.13;43.99;98494.03;6131011;23;20249;-94
2022/07/27 06:36:43;;;;;;;7.85;4.05;;;;;;;30.24;43.42;98498.69;6131190;23;20310;-95
2022/07/27 06:39:12;;;;;;;6.70;4.03;;;;;;;30.40;42.91;98492.75;6130643;23;20151;-96
2022/07/27 06:41:44;;;;;;;7.43;4.43;;;;;;;30.40;42.95;98497.31;6156659;23;20155;-96
2022/07/27 06:44:09;;;;;;;7.30;4.93;;;;;;;30.45;42.83;98489.41;6157467;23;20151;-95
2022/07/27 06:46:35;;;;;;;5.75;4.03;;;;;;;30.48;44.19;98486.22;6130924;23;20183;-94
2022/07/27 06:49:00;;;;;;;6.88;4.47;;;;;;;30.66;42.53;98486.25;6131043;23;20151;-96
2022/07/27 06:51:26;;;;;;;10.50;5.10;;;;;;;30.85;41.03;98495.19;6131235;23;20155;-95
2022/07/27 06:53:53;;;;;;;7.05;4.05;;;;;;;31.10;41.75;98487.03;6130853;23;20159;-94
2022/07/27 06:56:20;;;;;;;10.20;4.80;;;;;;;31.26;42.09;98481.84;6131549;23;20582;-95
2022/07/27 06:58:50;;;;;;;7.38;4.72;;;;;;;31.41;41.43;98481.41;6131140;23;20155;-95
2022/07/27 07:01:16;;;;;;;6.55;4.28;;;;;;;31.53;40.87;98471.47;6131406;23;20234;-96
2022/07/27 07:03:44;;;;;;;8.93;5.10;;;;;;;31.77;40.36;98475.91;6130746;23;20151;-95
2022/07/27 07:06:13;;;;;;;9.63;5.00;;;;;;;31.93;39.83;98477.13;6131140;23;20179;-96
2022/07/27 07:08:39;;;;;;;6.63;4.40;;;;;;;32.09;39.95;98479.19;6131830;23;20170;-95
2022/07/27 07:11:09;;;;;;;7.75;4.47;;;;;;;32.40;39.24;98483.44;6132715;23;20159;-96
2022/07/27 07:13:34;;;;;;;8.02;4.70;;;;;;;32.68;39.38;98486.28;6133470;23;20202;-96
2022/07/27 07:16:00;;;;;;;9.82;4.72;;;;;;;32.70;38.58;98484.19;6133139;23;20606;-95
2022/07/27 07:18:25;;;;;;;8.32;5.10;;;;;;;32.87;37.93;98481.53;6132646;23;20579;-95
2022/07/27 07:20:51;;;;;;;8.60;5.38;;;;;;;32.84;38.71;98480.13;6132560;23;20165;-94
2022/07/27 07:23:21;;;;;;;7.38;4.82;;;;;;;33.03;38.15;98486.22;6133032;23;20469;-95
2022/07/27 07:25:47;;;;;;;8.77;5.43;;;;;;;33.00;37.47;98478.56;6132874;23;20637;-94
2022/07/27 07:29:08;;;;;;;9.27;5.18;;;;;;;33.17;36.23;98474.91;6134434;23;20155;-96
2022/07/27 07:31:45;;;;;;;9.95;4.40;;;;;;;33.27;37.70;98471.56;6152896;23;20193;-96
2022/07/27 07:34:32;;;;;;;;;;;;;;;;;;;;;
2022/07/27 07:37:14;;;;;;;9.35;5.30;;;;;;;33.44;38.23;98472.41;6159033;23;20215;-96
2022/07/27 07:40:00;;;;;;;7.47;4.95;;;;;;;33.69;36.21;98470.22;6134380;23;20559;-96
2022/07/27 07:42:36;;;;;;;;;;;;;;;;;;;;;
2022/07/27 07:46:05;;;;;;;8.65;5.78;;;;;;;33.76;35.55;98478.19;6162144;23;20218;-96
2022/07/27 07:48:51;;;;;;;11.00;4.78;;;;;;;34.01;35.76;98470.50;5991062;23;20173;-96
2022/07/27 07:51:40;;;;;;;9.95;4.95;;;;;;;34.25;34.82;98471.97;5959070;24;20159;-96
2022/07/27 07:54:18;;;;;;;8.40;4.90;;;;;;;34.39;35.46;98469.75;5955567;24;20240;-96
2022/07/27 07:56:56;;;;;;;11.10;5.05;;;;;;;34.44;35.19;98475.25;6037158;23;20158;-96
2022/07/27 07:59:26;;;;;;;9.20;5.18;;;;;;;34.47;34.92;98472.06;6076163;23;20164;-96
2022/07/27 08:02:26;;;;;;;6.93;4.35;;;;;;;34.56;35.34;98468.69;6099784;23;20241;-96
2022/07/27 08:05:00;;;;;;;8.50;4.55;;;;;;;34.79;35.32;98474.97;6076222;23;20160;-96
2022/07/27 08:07:53;;;;;;;7.75;5.43;;;;;;;34.98;34.83;98471.72;6099044;23;20187;-96
2022/07/27 08:10:22;;;;;;;8.32;5.28;;;;;;;35.28;34.86;98474.00;6098290;23;20184;-96
2022/07/27 08:24:13;;;;;;;;;;;;;;;;;;;;;
2022/07/27 08:27:01;;;;;;;7.82;5.35;;;;;;;36.77;32.56;98458.41;6022770;23;20213;-94
2022/07/27 08:30:12;;;;;;;8.65;5.00;;;;;;;37.09;32.35;98458.31;5933795;23;20176;-93
2022/07/27 08:33:37;;;;;;;10.43;5.57;;;;;;;37.11;31.50;98452.59;6039216;23;20179;-95
2022/07/27 08:44:21;;;;;;;;;;;;;;;;;;;;;
2022/07/27 08:47:24;;;;;;;8.98;5.10;;;;;;;37.68;30.61;98447.84;5899727;24;20568;-93
2022/07/27 08:50:33;;;;;;;;;;;;;;;;;;;;;
2022/07/27 08:59:42;;;;;;;7.82;5.20;;;;;;;38.30;31.13;98442.09;6038875;23;20188;-94
2022/07/27 09:20:01;;;;;;;7.97;4.97;;;;;;;38.50;29.52;98419.34;5792394;24;20246;-92
2022/07/27 09:26:45;;;;;;;5.72;3.83;;;;;;;38.87;28.22;98422.53;5865734;24;20213;-94
2022/07/27 09:32:37;;;;;;;;;;;;;;;;;;;;;
2022/07/27 09:35:51;;;;;;;;;;;;;;;;;;;;;
2022/07/27 09:38:55;;;;;;;8.43;4.28;;;;;;;39.19;28.45;98424.88;5939873;23;20509;-93
2022/07/27 09:46:18;;;;;;;;;;;;;;;;;;;;;
2022/07/27 09:48:26;;;;;;;6.38;4.45;;;;;;;39.65;26.99;98417.22;6127329;23;20190;-94
2022/07/27 09:51:18;;;;;;;;;;;;;;;;;;;;;
2022/07/27 09:57:49;;;;;;;7.00;3.58;;;;;;;39.41;26.05;98406.13;6067912;23;20209;-93
2022/07/27 10:00:39;;;;;;;7.53;4.15;;;;;;;39.11;26.19;98417.22;6045309;23;20269;-96
2022/07/27 10:03:49;;;;;;;8.18;3.40;;;;;;;39.29;26.02;98411.94;6041755;23;20165;-94
2022/07/27 10:10:16;;;;;;;7.60;3.65;;;;;;;39.86;26.72;98404.97;6136378;23;20158;-93
2022/07/27 10:12:52;;;;;;;7.88;4.43;;;;;;;39.97;26.20;98398.28;6114777;23;20586;-94
2022/07/27 10:15:38;;;;;;;;;;;;;;;;;;;;;
2022/07/27 10:31:00;;;;;;;;;;;;;;;;;;;;;
2022/07/27 10:36:34;;;;;;;6.07;3.55;;;;;;;40.91;25.37;98385.81;5939822;24;20237;-93
2022/07/27 10:40:42;;;;;;;;;;;;;;;;;;;;;
2022/07/27 11:01:29;;;;;;;4.55;3.15;;;;;;;41.53;23.60;98366.19;5930017;24;20273;-93
2022/07/27 11:04:38;;;;;;;5.18;2.85;;;;;;;41.89;22.99;98360.94;5982101;23;20545;-92
2022/07/27 11:07:57;;;;;;;;;;;;;;;;;;;;;
2022/07/27 11:17:34;;;;;;;4.70;3.17;;;;;;;42.40;21.60;98351.75;5902680;24;20157;-94
2022/07/27 11:23:30;;;;;;;5.28;3.13;;;;;;;42.82;20.92;98349.47;5898350;24;20189;-93
2022/07/27 11:26:02;;;;;;;5.88;3.35;;;;;;;42.62;20.67;98340.84;5927240;24;20188;-93
2022/07/27 11:39:53;;;;;;;;;;;;;;;;;;;;;
2022/07/27 11:42:21;;;;;;;5.97;3.40;;;;;;;42.38;20.90;98332.75;5844454;24;20253;-92
2022/07/27 11:44:52;;;;;;;3.05;2.55;;;;;;;42.49;19.87;98327.84;5875119;24;20606;-93
2022/07/27 11:58:00;;;;;;;3.58;2.47;;;;;;;42.95;20.46;98316.72;5912572;24;20633;-93
2022/07/27 12:04:35;;;;;;;3.90;2.80;;;;;;;43.14;19.51;98317.34;5983164;24;20165;-94
2022/07/27 12:07:21;;;;;;;;;;;;;;;;;;;;;
2022/07/27 12:09:50;;;;;;;5.18;2.95;;;;;;;43.40;19.65;98315.66;6058380;23;20235;-93
2022/07/27 12:12:18;;;;;;;4.63;2.90;;;;;;;43.40;19.86;98310.13;6102469;23;20226;-92
2022/07/27 12:15:00;;;;;;;4.20;2.85;;;;;;;43.70;19.33;98298.31;6101192;23;20159;-93
2022/07/27 12:17:55;;;;;;;4.68;3.30;;;;;;;44.16;19.17;98306.25;6102637;23;20225;-93
2022/07/27 12:20:31;;;;;;;6.25;3.00;;;;;;;44.05;18.73;98302.13;6101530;23;20166;-94
2022/07/27 12:23:23;;;;;;;3.78;2.83;;;;;;;44.09;18.83;98289.28;6102719;23;20181;-94
2022/07/27 12:25:48;;;;;;;7.05;3.28;;;;;;;43.35;18.65;98299.22;6101633;23;20492;-92
2022/07/27 12:29:00;;;;;;;5.93;3.03;;;;;;;43.65;19.11;98290.19;6102731;23;20161;-94
2022/07/27 12:32:05;;;;;;;9.32;3.50;;;;;;;43.69;18.06;98288.41;6102064;23;20155;-92
2022/07/27 12:34:39;;;;;;;4.88;3.10;;;;;;;43.93;18.79;98282.53;6101942;23;20186;-93
2022/07/27 12:37:15;;;;;;;4.00;2.58;;;;;;;43.75;18.51;98284.41;6102991;23;20161;-92
2022/07/27 12:40:30;;;;;;;;;;;;;;;;;;;;;
2022/07/27 12:43:09;;;;;;;4.97;3.50;;;;;;;43.52;19.48;98285.56;6128925;23;20218;-93
2022/07/27 12:45:37;;;;;;;5.00;2.97;;;;;;;43.47;18.98;98285.69;6103407;23;20149;-93
2022/07/27 12:48:09;;;;;;;4.72;3.40;;;;;;;43.10;19.28;98277.75;6102671;23;20621;-92
2022/07/27 12:50:39;;;;;;;5.00;3.00;;;;;;;43.34;17.93;98278.28;6102531;23;20178;-93
2022/07/27 12:53:58;;;;;;;;;;;;;;;;;;;;;
2022/07/27 12:57:20;;;;;;;;;;;;;;;;;;;;;
2022/07/27 13:00:03;;;;;;;4.43;2.67;;;;;;;44.26;18.30;98260.94;6127357;23;20530;-91
2022/07/27 13:02:47;;;;;;;;;;;;;;;;;;;;;
2022/07/27 13:05:14;;;;;;;4.30;2.95;;;;;;;44.11;18.03;98253.09;6128257;23;20239;-92
2022/07/27 13:07:42;;;;;;;4.38;3.10;;;;;;;44.16;18.24;98252.94;6101828;23;20198;-92
2022/07/27 13:10:09;;;;;;;5.57;3.35;;;;;;;44.23;18.51;98247.75;6127900;23;20226;-92
2022/07/27 13:12:37;;;;;;;4.68;2.85;;;;;;;44.12;18.02;98250.00;6102471;23;20155;-91
2022/07/27 13:15:05;;;;;;;4.72;2.65;;;;;;;44.34;18.54;98249.09;6101767;23;20186;-92
2022/07/27 13:17:32;;;;;;;3.78;2.97;;;;;;;44.53;18.26;98257.94;6102337;23;20150;-92
2022/07/27 13:19:58;;;;;;;5.20;3.00;;;;;;;44.32;18.68;98243.06;6127430;23;20151;-91
2022/07/27 13:22:23;;;;;;;4.50;2.85;;;;;;;44.53;17.83;98249.63;6128148;23;20171;-92
2022/07/27 13:24:49;;;;;;;4.35;2.95;;;;;;;44.01;17.84;98246.69;6101871;23;20476;-92
2022/07/27 13:27:14;;;;;;;4.15;2.90;;;;;;;43.58;18.31;98242.88;6101755;23;20264;-92
2022/07/27 13:29:40;;;;;;;5.32;3.10;;;;;;;43.38;17.97;98241.47;6127526;23;20147;-93
2022/07/27 13:32:06;;;;;;;4.65;2.90;;;;;;;43.62;18.76;98241.13;6102004;23;20504;-93
2022/07/27 13:34:31;;;;;;;4.82;3.05;;;;;;;43.88;18.55;98239.31;6127283;23;20579;-92
2022/07/27 13:36:57;;;;;;;5.18;3.42;;;;;;;43.99;18.07;98226.03;6101717;23;20235;-91
2022/07/27 13:39:22;;;;;;;3.97;2.80;;;;;;;44.17;18.03;98224.16;6101878;23;20205;-91
2022/07/27 13:41:51;;;;;;;3.78;2.88;;;;;;;44.29;18.10;98230.69;6127730;23;20147;-93
2022/07/27 13:44:21;;;;;;;5.40;3.10;;;;;;;44.17;17.53;98218.63;6101874;23;20154;-93
2022/07/27 13:46:47;;;;;;;4.57;3.17;;;;;;;43.39;17.92;98225.72;6101852;23;20254;-94
2022/07/27 13:49:15;;;;;;;4.40;3.10;;;;;;;43.02;17.28;98226.09;6101812;23;20574;-92
2022/07/27 13:51:41;;;;;;;4.40;2.83;;;;;;;43.20;17.53;98217.63;6101740;23;20159;-92
2022/07/27 13:54:07;;;;;;;3.75;2.90;;;;;;;43.37;17.86;98222.47;6101870;23;20151;-92
2022/07/27 13:56:33;;;;;;;4.78;3.20;;;;;;;43.08;18.30;98211.88;6102114;23;20240;-93
2022/07/27 13:58:59;;;;;;;3.60;2.40;;;;;;;43.13;17.85;98208.16;6100867;23;20256;-91
2022/07/27 14:01:26;;;;;;;5.50;3.47;;;;;;;43.44;17.39;98211.78;6100912;23;20564;-93
2022/07/27 14:03:52;;;;;;;4.80;3.30;;;;;;;43.52;18.04;98210.19;6101236;23;20233;-92
2022/07/27 14:06:18;;;;;;;6.38;3.20;;;;;;;43.40;18.15;98195.03;6126343;23;20171;-92
2022/07/27 14:08:44;;;;;;;6.13;2.97;;;;;;;43.69;17.75;98197.28;6101244;23;20152;-92
2022/07/27 14:11:10;;;;;;;4.75;3.10;;;;;;;43.89;17.53;98194.00;6101032;23;20206;-93
2022/07/27 14:13:36;;;;;;;6.80;3.42;;;;;;;44.07;17.66;98202.31;6124206;23;20154;-91
2022/07/27 14:16:01;;;;;;;4.47;3.05;;;;;;;44.27;16.93;98197.03;6099025;23;20156;-92
2022/07/27 14:18:31;;;;;;;4.53;2.63;;;;;;;44.00;17.08;98192.56;6124557;23;20528;-92
2022/07/27 14:20:58;;;;;;;4.55;3.00;;;;;;;43.96;17.42;98188.81;6100779;23;20250;-93
2022/07/27 14:23:24;;;;;;;4.32;2.63;;;;;;;43.73;18.18;98186.47;6100614;23;20175;-91
2022/07/27 14:25:50;;;;;;;5.78;2.53;;;;;;;43.78;17.74;98178.84;6100103;23;20233;-92
2022/07/27 14:28:15;;;;;;;4.30;2.47;;;;;;;42.63;18.49;98191.69;6126213;23;20460;-91
2022/07/27 14:30:41;;;;;;;5.50;3.25;;;;;;;42.84;17.92;98187.31;6100415;23;20572;-92
2022/07/27 14:33:07;;;;;;;4.20;2.65;;;;;;;43.02;18.21;98181.94;6101310;23;20166;-92
2022/07/27 14:35:33;;;;;;;4.38;2.45;;;;;;;42.96;18.05;98177.69;6101721;23;20610;-91